sensor_id;sensor_type;location;lat;lon;timestamp;P1;durP1;ratioP1;P2;durP2;ratioP2
50821;SDS011;36794;51.212;6.980;2023-03-01T00:01:31;13.37;;;7.80;;
50821;SDS011;36794;51.212;6.980;2023-03-01T00:03:57;13.93;;;8.23;;
50821;SDS011;36794;51.212;6.980;2023-03-01T00:06:24;10.40;;;7.50;;
50821;SDS011;36794;51.212;6.980;2023-03-01T00:08:50;12.27;;;8.07;;
50821;SDS011;36794;51.212;6.980;2023-03-01T00:13:42;12.83;;;8.23;;
50821;SDS011;36794;51.212;6.980;2023-03-01T00:16:10;12.23;;;7.43;;
50821;SDS011;36794;51.212;6.980;2023-03-01T00:18:37;15.43;;;8.30;;
50821;SDS011;36794;51.212;6.980;2023-03-01T00:21:03;13.80;;;8.10;;
50821;SDS011;36794;51.212;6.980;2023-03-01T00:23:30;13.30;;;8.23;;
50821;SDS011;36794;51.212;6.980;2023-03-01T00:25:56;12.33;;;8.37;;
50821;SDS011;36794;51.212;6.980;2023-03-01T00:28:22;13.07;;;8.63;;
50821;SDS011;36794;51.212;6.980;2023-03-01T00:30:48;11.30;;;8.17;;
50821;SDS011;36794;51.212;6.980;2023-03-01T00:33:14;15.40;;;8.57;;
50821;SDS011;36794;51.212;6.980;2023-03-01T00:35:40;11.60;;;8.10;;
50821;SDS011;36794;51.212;6.980;2023-03-01T00:38:06;12.10;;;7.50;;
50821;SDS011;36794;51.212;6.980;2023-03-01T00:40:33;11.83;;;8.00;;
50821;SDS011;36794;51.212;6.980;2023-03-01T00:42:59;16.90;;;9.00;;
50821;SDS011;36794;51.212;6.980;2023-03-01T00:45:26;11.50;;;8.63;;
50821;SDS011;36794;51.212;6.980;2023-03-01T00:47:52;19.73;;;10.03;;
50821;SDS011;36794;51.212;6.980;2023-03-01T00:50:18;13.63;;;8.50;;
50821;SDS011;36794;51.212;6.980;2023-03-01T00:52:44;13.03;;;8.60;;
50821;SDS011;36794;51.212;6.980;2023-03-01T00:55:10;14.50;;;8.60;;
50821;SDS011;36794;51.212;6.980;2023-03-01T00:57:36;12.63;;;8.27;;
50821;SDS011;36794;51.212;6.980;2023-03-01T01:00:03;11.47;;;7.57;;
50821;SDS011;36794;51.212;6.980;2023-03-01T01:02:31;15.80;;;8.57;;
50821;SDS011;36794;51.212;6.980;2023-03-01T01:04:57;15.27;;;8.47;;
50821;SDS011;36794;51.212;6.980;2023-03-01T01:07:23;13.63;;;9.03;;
50821;SDS011;36794;51.212;6.980;2023-03-01T01:09:49;15.17;;;8.33;;
50821;SDS011;36794;51.212;6.980;2023-03-01T01:12:15;12.50;;;7.63;;
50821;SDS011;36794;51.212;6.980;2023-03-01T01:14:41;10.00;;;7.53;;
50821;SDS011;36794;51.212;6.980;2023-03-01T01:17:07;11.53;;;7.87;;
50821;SDS011;36794;51.212;6.980;2023-03-01T01:19:33;11.57;;;7.93;;
50821;SDS011;36794;51.212;6.980;2023-03-01T01:21:59;15.03;;;8.53;;
50821;SDS011;36794;51.212;6.980;2023-03-01T01:24:25;15.53;;;8.80;;
50821;SDS011;36794;51.212;6.980;2023-03-01T01:26:50;11.47;;;7.93;;
50821;SDS011;36794;51.212;6.980;2023-03-01T01:29:16;17.30;;;8.90;;
50821;SDS011;36794;51.212;6.980;2023-03-01T01:31:43;14.50;;;8.93;;
50821;SDS011;36794;51.212;6.980;2023-03-01T01:34:12;15.00;;;9.37;;
50821;SDS011;36794;51.212;6.980;2023-03-01T01:36:38;16.20;;;8.70;;
50821;SDS011;36794;51.212;6.980;2023-03-01T01:39:04;13.83;;;8.77;;
50821;SDS011;36794;51.212;6.980;2023-03-01T01:41:30;15.97;;;8.93;;
50821;SDS011;36794;51.212;6.980;2023-03-01T01:46:35;18.00;;;8.80;;
50821;SDS011;36794;51.212;6.980;2023-03-01T01:49:04;13.40;;;9.50;;
50821;SDS011;36794;51.212;6.980;2023-03-01T01:51:36;14.80;;;9.67;;
50821;SDS011;36794;51.212;6.980;2023-03-01T01:54:09;14.00;;;9.60;;
50821;SDS011;36794;51.212;6.980;2023-03-01T01:56:36;17.87;;;10.07;;
50821;SDS011;36794;51.212;6.980;2023-03-01T01:59:03;13.73;;;9.50;;
50821;SDS011;36794;51.212;6.980;2023-03-01T02:01:29;14.60;;;9.87;;
50821;SDS011;36794;51.212;6.980;2023-03-01T02:03:55;11.90;;;9.23;;
50821;SDS011;36794;51.212;6.980;2023-03-01T02:06:34;12.60;;;9.13;;
50821;SDS011;36794;51.212;6.980;2023-03-01T02:09:03;14.17;;;9.50;;
50821;SDS011;36794;51.212;6.980;2023-03-01T02:11:31;16.27;;;9.27;;
50821;SDS011;36794;51.212;6.980;2023-03-01T02:13:58;15.40;;;9.13;;
50821;SDS011;36794;51.212;6.980;2023-03-01T02:16:24;13.00;;;8.60;;
50821;SDS011;36794;51.212;6.980;2023-03-01T02:18:51;15.87;;;9.40;;
50821;SDS011;36794;51.212;6.980;2023-03-01T02:23:50;18.73;;;8.93;;
50821;SDS011;36794;51.212;6.980;2023-03-01T02:28:56;15.23;;;10.40;;
50821;SDS011;36794;51.212;6.980;2023-03-01T02:31:22;14.83;;;9.67;;
50821;SDS011;36794;51.212;6.980;2023-03-01T02:34:07;19.60;;;10.27;;
50821;SDS011;36794;51.212;6.980;2023-03-01T02:36:35;16.93;;;11.30;;
50821;SDS011;36794;51.212;6.980;2023-03-01T02:39:03;17.63;;;10.00;;
50821;SDS011;36794;51.212;6.980;2023-03-01T02:41:31;16.43;;;9.50;;
50821;SDS011;36794;51.212;6.980;2023-03-01T02:43:57;17.93;;;10.60;;
50821;SDS011;36794;51.212;6.980;2023-03-01T02:46:24;19.67;;;10.43;;
50821;SDS011;36794;51.212;6.980;2023-03-01T02:48:55;19.93;;;10.37;;
50821;SDS011;36794;51.212;6.980;2023-03-01T02:56:13;16.73;;;10.83;;
50821;SDS011;36794;51.212;6.980;2023-03-01T02:58:40;16.23;;;10.40;;
50821;SDS011;36794;51.212;6.980;2023-03-01T03:01:11;17.23;;;10.53;;
50821;SDS011;36794;51.212;6.980;2023-03-01T03:03:38;16.70;;;10.13;;
50821;SDS011;36794;51.212;6.980;2023-03-01T03:06:04;15.27;;;9.80;;
50821;SDS011;36794;51.212;6.980;2023-03-01T03:08:30;16.50;;;10.27;;
50821;SDS011;36794;51.212;6.980;2023-03-01T03:10:56;15.13;;;9.83;;
50821;SDS011;36794;51.212;6.980;2023-03-01T03:13:22;12.90;;;9.23;;
50821;SDS011;36794;51.212;6.980;2023-03-01T03:15:53;15.57;;;9.40;;
50821;SDS011;36794;51.212;6.980;2023-03-01T03:18:19;14.20;;;9.67;;
50821;SDS011;36794;51.212;6.980;2023-03-01T03:20:45;18.40;;;9.70;;
50821;SDS011;36794;51.212;6.980;2023-03-01T03:23:11;15.20;;;9.47;;
50821;SDS011;36794;51.212;6.980;2023-03-01T03:25:37;17.30;;;10.80;;
50821;SDS011;36794;51.212;6.980;2023-03-01T03:28:03;18.13;;;10.70;;
50821;SDS011;36794;51.212;6.980;2023-03-01T03:30:35;18.03;;;10.70;;
50821;SDS011;36794;51.212;6.980;2023-03-01T03:33:01;14.13;;;9.23;;
50821;SDS011;36794;51.212;6.980;2023-03-01T03:35:31;16.00;;;9.87;;
50821;SDS011;36794;51.212;6.980;2023-03-01T03:37:58;15.60;;;9.87;;
50821;SDS011;36794;51.212;6.980;2023-03-01T03:40:29;19.70;;;10.10;;
50821;SDS011;36794;51.212;6.980;2023-03-01T03:42:55;16.73;;;9.60;;
50821;SDS011;36794;51.212;6.980;2023-03-01T03:45:21;19.97;;;10.70;;
50821;SDS011;36794;51.212;6.980;2023-03-01T03:47:47;16.63;;;10.67;;
50821;SDS011;36794;51.212;6.980;2023-03-01T03:50:14;14.60;;;10.20;;
50821;SDS011;36794;51.212;6.980;2023-03-01T03:52:40;17.73;;;10.13;;
50821;SDS011;36794;51.212;6.980;2023-03-01T03:55:06;18.33;;;10.57;;
50821;SDS011;36794;51.212;6.980;2023-03-01T03:57:36;16.53;;;10.17;;
50821;SDS011;36794;51.212;6.980;2023-03-01T04:00:02;17.63;;;10.43;;
50821;SDS011;36794;51.212;6.980;2023-03-01T04:02:30;19.37;;;9.70;;
50821;SDS011;36794;51.212;6.980;2023-03-01T04:04:56;16.93;;;10.17;;
50821;SDS011;36794;51.212;6.980;2023-03-01T04:07:22;16.33;;;10.00;;
50821;SDS011;36794;51.212;6.980;2023-03-01T04:09:48;14.60;;;9.23;;
50821;SDS011;36794;51.212;6.980;2023-03-01T04:12:13;19.10;;;10.27;;
50821;SDS011;36794;51.212;6.980;2023-03-01T04:14:45;19.07;;;10.83;;
50821;SDS011;36794;51.212;6.980;2023-03-01T04:17:11;17.27;;;10.40;;
50821;SDS011;36794;51.212;6.980;2023-03-01T04:19:37;16.83;;;11.00;;
50821;SDS011;36794;51.212;6.980;2023-03-01T04:22:03;15.00;;;10.37;;
50821;SDS011;36794;51.212;6.980;2023-03-01T04:24:34;15.93;;;10.60;;
50821;SDS011;36794;51.212;6.980;2023-03-01T04:27:00;18.03;;;10.10;;
50821;SDS011;36794;51.212;6.980;2023-03-01T04:29:26;18.93;;;11.00;;
50821;SDS011;36794;51.212;6.980;2023-03-01T04:31:52;15.90;;;10.37;;
50821;SDS011;36794;51.212;6.980;2023-03-01T04:34:18;20.87;;;11.07;;
50821;SDS011;36794;51.212;6.980;2023-03-01T04:36:44;16.07;;;9.93;;
50821;SDS011;36794;51.212;6.980;2023-03-01T04:39:10;21.23;;;10.83;;
50821;SDS011;36794;51.212;6.980;2023-03-01T04:41:39;16.33;;;10.50;;
50821;SDS011;36794;51.212;6.980;2023-03-01T04:44:05;17.87;;;11.10;;
50821;SDS011;36794;51.212;6.980;2023-03-01T04:46:32;23.70;;;11.10;;
50821;SDS011;36794;51.212;6.980;2023-03-01T04:48:58;19.23;;;10.97;;
50821;SDS011;36794;51.212;6.980;2023-03-01T04:51:24;16.57;;;10.93;;
50821;SDS011;36794;51.212;6.980;2023-03-01T04:53:49;17.23;;;10.23;;
50821;SDS011;36794;51.212;6.980;2023-03-01T04:56:16;16.17;;;10.10;;
50821;SDS011;36794;51.212;6.980;2023-03-01T04:58:45;18.17;;;10.77;;
50821;SDS011;36794;51.212;6.980;2023-03-01T05:01:12;18.23;;;10.80;;
50821;SDS011;36794;51.212;6.980;2023-03-01T05:03:42;19.20;;;11.17;;
50821;SDS011;36794;51.212;6.980;2023-03-01T05:06:08;19.50;;;11.07;;
50821;SDS011;36794;51.212;6.980;2023-03-01T05:08:35;17.83;;;11.30;;
50821;SDS011;36794;51.212;6.980;2023-03-01T05:11:05;24.63;;;11.70;;
50821;SDS011;36794;51.212;6.980;2023-03-01T05:13:34;17.80;;;10.93;;
50821;SDS011;36794;51.212;6.980;2023-03-01T05:16:00;15.30;;;9.53;;
50821;SDS011;36794;51.212;6.980;2023-03-01T05:18:28;20.17;;;11.70;;
50821;SDS011;36794;51.212;6.980;2023-03-01T05:20:55;20.63;;;11.57;;
50821;SDS011;36794;51.212;6.980;2023-03-01T05:23:23;18.00;;;11.63;;
50821;SDS011;36794;51.212;6.980;2023-03-01T05:25:49;20.13;;;11.00;;
50821;SDS011;36794;51.212;6.980;2023-03-01T05:28:17;16.40;;;10.47;;
50821;SDS011;36794;51.212;6.980;2023-03-01T05:30:43;14.73;;;9.70;;
50821;SDS011;36794;51.212;6.980;2023-03-01T05:33:09;19.97;;;10.80;;
50821;SDS011;36794;51.212;6.980;2023-03-01T05:35:38;20.40;;;10.97;;
50821;SDS011;36794;51.212;6.980;2023-03-01T05:38:04;18.77;;;12.20;;
50821;SDS011;36794;51.212;6.980;2023-03-01T05:40:30;18.60;;;11.27;;
50821;SDS011;36794;51.212;6.980;2023-03-01T05:42:58;16.47;;;10.97;;
50821;SDS011;36794;51.212;6.980;2023-03-01T05:45:24;21.37;;;11.93;;
50821;SDS011;36794;51.212;6.980;2023-03-01T05:47:51;22.13;;;11.67;;
50821;SDS011;36794;51.212;6.980;2023-03-01T05:50:18;17.73;;;11.27;;
50821;SDS011;36794;51.212;6.980;2023-03-01T05:52:45;22.23;;;11.47;;
50821;SDS011;36794;51.212;6.980;2023-03-01T05:55:11;18.10;;;11.73;;
50821;SDS011;36794;51.212;6.980;2023-03-01T05:57:37;21.00;;;10.97;;
50821;SDS011;36794;51.212;6.980;2023-03-01T06:00:03;19.67;;;11.40;;
50821;SDS011;36794;51.212;6.980;2023-03-01T06:02:31;17.10;;;10.73;;
50821;SDS011;36794;51.212;6.980;2023-03-01T06:04:57;18.13;;;11.33;;
50821;SDS011;36794;51.212;6.980;2023-03-01T06:07:23;16.53;;;10.37;;
50821;SDS011;36794;51.212;6.980;2023-03-01T06:09:49;20.30;;;11.27;;
50821;SDS011;36794;51.212;6.980;2023-03-01T06:12:15;17.43;;;11.17;;
50821;SDS011;36794;51.212;6.980;2023-03-01T06:14:41;22.93;;;11.43;;
50821;SDS011;36794;51.212;6.980;2023-03-01T06:17:07;19.07;;;10.90;;
50821;SDS011;36794;51.212;6.980;2023-03-01T06:19:32;17.53;;;10.93;;
50821;SDS011;36794;51.212;6.980;2023-03-01T06:21:58;20.93;;;11.70;;
50821;SDS011;36794;51.212;6.980;2023-03-01T06:24:24;22.20;;;11.13;;
50821;SDS011;36794;51.212;6.980;2023-03-01T06:26:52;15.03;;;10.43;;
50821;SDS011;36794;51.212;6.980;2023-03-01T06:29:18;21.00;;;11.00;;
50821;SDS011;36794;51.212;6.980;2023-03-01T06:31:44;21.07;;;11.63;;
50821;SDS011;36794;51.212;6.980;2023-03-01T06:34:10;17.43;;;10.60;;
50821;SDS011;36794;51.212;6.980;2023-03-01T06:36:38;19.77;;;11.40;;
50821;SDS011;36794;51.212;6.980;2023-03-01T06:39:04;16.40;;;10.63;;
50821;SDS011;36794;51.212;6.980;2023-03-01T06:41:30;21.40;;;12.00;;
50821;SDS011;36794;51.212;6.980;2023-03-01T06:43:57;19.43;;;11.50;;
50821;SDS011;36794;51.212;6.980;2023-03-01T06:46:23;19.67;;;11.97;;
50821;SDS011;36794;51.212;6.980;2023-03-01T06:48:49;17.57;;;10.90;;
50821;SDS011;36794;51.212;6.980;2023-03-01T06:51:15;18.13;;;11.47;;
50821;SDS011;36794;51.212;6.980;2023-03-01T06:53:41;19.17;;;12.00;;
50821;SDS011;36794;51.212;6.980;2023-03-01T06:56:07;17.03;;;11.30;;
50821;SDS011;36794;51.212;6.980;2023-03-01T06:58:33;15.10;;;10.50;;
50821;SDS011;36794;51.212;6.980;2023-03-01T07:00:59;17.73;;;11.17;;
50821;SDS011;36794;51.212;6.980;2023-03-01T07:03:25;16.37;;;11.27;;
50821;SDS011;36794;51.212;6.980;2023-03-01T07:05:51;19.87;;;10.77;;
50821;SDS011;36794;51.212;6.980;2023-03-01T07:08:17;18.40;;;11.37;;
50821;SDS011;36794;51.212;6.980;2023-03-01T07:10:43;16.47;;;10.33;;
50821;SDS011;36794;51.212;6.980;2023-03-01T07:13:09;16.90;;;10.47;;
50821;SDS011;36794;51.212;6.980;2023-03-01T07:15:35;17.23;;;10.67;;
50821;SDS011;36794;51.212;6.980;2023-03-01T07:18:01;16.27;;;10.80;;
50821;SDS011;36794;51.212;6.980;2023-03-01T07:20:27;17.80;;;11.13;;
50821;SDS011;36794;51.212;6.980;2023-03-01T07:22:54;19.40;;;10.23;;
50821;SDS011;36794;51.212;6.980;2023-03-01T07:25:23;16.23;;;10.53;;
50821;SDS011;36794;51.212;6.980;2023-03-01T07:27:52;16.10;;;9.83;;
50821;SDS011;36794;51.212;6.980;2023-03-01T07:30:19;17.50;;;11.03;;
50821;SDS011;36794;51.212;6.980;2023-03-01T07:32:45;20.53;;;10.73;;
50821;SDS011;36794;51.212;6.980;2023-03-01T07:35:11;17.20;;;10.97;;
50821;SDS011;36794;51.212;6.980;2023-03-01T07:37:37;20.77;;;11.07;;
50821;SDS011;36794;51.212;6.980;2023-03-01T07:40:03;16.27;;;10.70;;
50821;SDS011;36794;51.212;6.980;2023-03-01T07:42:29;16.43;;;11.07;;
50821;SDS011;36794;51.212;6.980;2023-03-01T07:44:55;16.77;;;10.20;;
50821;SDS011;36794;51.212;6.980;2023-03-01T07:47:21;19.63;;;10.40;;
50821;SDS011;36794;51.212;6.980;2023-03-01T07:49:47;15.97;;;10.00;;
50821;SDS011;36794;51.212;6.980;2023-03-01T07:52:13;16.40;;;10.07;;
50821;SDS011;36794;51.212;6.980;2023-03-01T07:54:41;17.60;;;9.83;;
50821;SDS011;36794;51.212;6.980;2023-03-01T07:57:09;19.03;;;9.80;;
50821;SDS011;36794;51.212;6.980;2023-03-01T07:59:35;19.90;;;10.90;;
50821;SDS011;36794;51.212;6.980;2023-03-01T08:02:00;21.87;;;9.97;;
50821;SDS011;36794;51.212;6.980;2023-03-01T08:04:26;18.17;;;10.17;;
50821;SDS011;36794;51.212;6.980;2023-03-01T08:06:53;22.30;;;10.40;;
50821;SDS011;36794;51.212;6.980;2023-03-01T08:09:19;15.63;;;10.63;;
50821;SDS011;36794;51.212;6.980;2023-03-01T08:11:45;20.03;;;10.57;;
50821;SDS011;36794;51.212;6.980;2023-03-01T08:14:11;18.13;;;10.90;;
50821;SDS011;36794;51.212;6.980;2023-03-01T08:16:37;14.30;;;10.27;;
50821;SDS011;36794;51.212;6.980;2023-03-01T08:19:06;16.80;;;10.47;;
50821;SDS011;36794;51.212;6.980;2023-03-01T08:21:33;18.13;;;10.17;;
50821;SDS011;36794;51.212;6.980;2023-03-01T08:24:02;15.23;;;10.13;;
50821;SDS011;36794;51.212;6.980;2023-03-01T08:26:28;18.90;;;9.97;;
50821;SDS011;36794;51.212;6.980;2023-03-01T08:28:54;16.50;;;9.03;;
50821;SDS011;36794;51.212;6.980;2023-03-01T08:31:25;13.43;;;9.30;;
50821;SDS011;36794;51.212;6.980;2023-03-01T08:33:52;15.70;;;9.27;;
50821;SDS011;36794;51.212;6.980;2023-03-01T08:36:32;16.67;;;9.37;;
50821;SDS011;36794;51.212;6.980;2023-03-01T08:38:58;15.47;;;9.50;;
50821;SDS011;36794;51.212;6.980;2023-03-01T08:41:24;17.13;;;9.30;;
50821;SDS011;36794;51.212;6.980;2023-03-01T08:43:50;13.77;;;9.03;;
50821;SDS011;36794;51.212;6.980;2023-03-01T08:46:17;15.13;;;9.23;;
50821;SDS011;36794;51.212;6.980;2023-03-01T08:48:43;16.37;;;8.97;;
50821;SDS011;36794;51.212;6.980;2023-03-01T08:51:10;14.00;;;9.13;;
50821;SDS011;36794;51.212;6.980;2023-03-01T08:53:37;16.77;;;9.50;;
50821;SDS011;36794;51.212;6.980;2023-03-01T08:56:04;17.00;;;9.17;;
50821;SDS011;36794;51.212;6.980;2023-03-01T08:58:30;13.83;;;9.40;;
50821;SDS011;36794;51.212;6.980;2023-03-01T09:00:56;15.23;;;8.77;;
50821;SDS011;36794;51.212;6.980;2023-03-01T09:03:23;17.43;;;9.13;;
50821;SDS011;36794;51.212;6.980;2023-03-01T09:05:49;13.47;;;8.53;;
50821;SDS011;36794;51.212;6.980;2023-03-01T09:08:16;14.17;;;9.00;;
50821;SDS011;36794;51.212;6.980;2023-03-01T09:10:42;12.10;;;8.10;;
50821;SDS011;36794;51.212;6.980;2023-03-01T09:13:08;12.63;;;8.27;;
50821;SDS011;36794;51.212;6.980;2023-03-01T09:15:34;12.67;;;8.57;;
50821;SDS011;36794;51.212;6.980;2023-03-01T09:18:00;14.97;;;8.93;;
50821;SDS011;36794;51.212;6.980;2023-03-01T09:20:26;14.60;;;8.73;;
50821;SDS011;36794;51.212;6.980;2023-03-01T09:22:51;13.63;;;9.03;;
50821;SDS011;36794;51.212;6.980;2023-03-01T09:25:17;15.23;;;9.30;;
50821;SDS011;36794;51.212;6.980;2023-03-01T09:27:43;14.27;;;9.03;;
50821;SDS011;36794;51.212;6.980;2023-03-01T09:30:09;19.10;;;8.83;;
50821;SDS011;36794;51.212;6.980;2023-03-01T09:32:36;13.63;;;8.93;;
50821;SDS011;36794;51.212;6.980;2023-03-01T09:35:01;14.60;;;8.97;;
50821;SDS011;36794;51.212;6.980;2023-03-01T09:37:31;14.50;;;9.27;;
50821;SDS011;36794;51.212;6.980;2023-03-01T09:39:57;16.17;;;9.00;;
50821;SDS011;36794;51.212;6.980;2023-03-01T09:42:23;13.97;;;8.47;;
50821;SDS011;36794;51.212;6.980;2023-03-01T09:45:00;16.90;;;9.60;;
50821;SDS011;36794;51.212;6.980;2023-03-01T09:47:28;13.93;;;8.30;;
50821;SDS011;36794;51.212;6.980;2023-03-01T09:49:58;15.90;;;8.80;;
50821;SDS011;36794;51.212;6.980;2023-03-01T09:54:55;18.20;;;9.83;;
50821;SDS011;36794;51.212;6.980;2023-03-01T10:04:48;14.57;;;9.10;;
50821;SDS011;36794;51.212;6.980;2023-03-01T10:09:42;15.37;;;9.90;;
50821;SDS011;36794;51.212;6.980;2023-03-01T10:12:09;15.60;;;9.30;;
50821;SDS011;36794;51.212;6.980;2023-03-01T10:14:37;16.53;;;9.00;;
50821;SDS011;36794;51.212;6.980;2023-03-01T10:17:19;17.33;;;9.33;;
50821;SDS011;36794;51.212;6.980;2023-03-01T10:19:46;14.97;;;9.07;;
50821;SDS011;36794;51.212;6.980;2023-03-01T10:22:16;12.90;;;8.63;;
50821;SDS011;36794;51.212;6.980;2023-03-01T10:24:46;16.83;;;9.63;;
50821;SDS011;36794;51.212;6.980;2023-03-01T10:27:26;24.27;;;9.93;;
50821;SDS011;36794;51.212;6.980;2023-03-01T10:30:01;16.13;;;9.03;;
50821;SDS011;36794;51.212;6.980;2023-03-01T10:32:28;18.57;;;10.03;;
50821;SDS011;36794;51.212;6.980;2023-03-01T10:34:54;19.80;;;10.03;;
50821;SDS011;36794;51.212;6.980;2023-03-01T10:37:22;17.53;;;9.63;;
50821;SDS011;36794;51.212;6.980;2023-03-01T10:40:06;15.57;;;9.50;;
50821;SDS011;36794;51.212;6.980;2023-03-01T10:42:40;15.50;;;9.50;;
50821;SDS011;36794;51.212;6.980;2023-03-01T10:45:27;16.80;;;9.87;;
50821;SDS011;36794;51.212;6.980;2023-03-01T10:50:46;16.20;;;9.88;;
50821;SDS011;36794;51.212;6.980;2023-03-01T10:53:20;16.03;;;9.63;;
50821;SDS011;36794;51.212;6.980;2023-03-01T10:55:46;19.45;;;9.52;;
50821;SDS011;36794;51.212;6.980;2023-03-01T10:58:19;18.20;;;9.63;;
50821;SDS011;36794;51.212;6.980;2023-03-01T11:00:47;14.07;;;9.43;;
50821;SDS011;36794;51.212;6.980;2023-03-01T11:03:14;15.77;;;9.40;;
50821;SDS011;36794;51.212;6.980;2023-03-01T11:05:52;17.13;;;9.80;;
50821;SDS011;36794;51.212;6.980;2023-03-01T11:11:03;19.27;;;9.67;;
50821;SDS011;36794;51.212;6.980;2023-03-01T11:13:30;14.97;;;9.83;;
50821;SDS011;36794;51.212;6.980;2023-03-01T11:16:03;19.43;;;10.77;;
50821;SDS011;36794;51.212;6.980;2023-03-01T11:18:31;16.00;;;9.07;;
50821;SDS011;36794;51.212;6.980;2023-03-01T11:20:58;14.30;;;9.97;;
50821;SDS011;36794;51.212;6.980;2023-03-01T11:23:25;17.00;;;9.43;;
50821;SDS011;36794;51.212;6.980;2023-03-01T11:25:58;15.23;;;9.10;;
50821;SDS011;36794;51.212;6.980;2023-03-01T11:28:24;15.60;;;9.50;;
50821;SDS011;36794;51.212;6.980;2023-03-01T11:33:31;18.23;;;8.80;;
50821;SDS011;36794;51.212;6.980;2023-03-01T11:36:01;19.33;;;9.23;;
50821;SDS011;36794;51.212;6.980;2023-03-01T11:38:29;15.27;;;9.10;;
50821;SDS011;36794;51.212;6.980;2023-03-01T11:41:00;16.33;;;9.13;;
50821;SDS011;36794;51.212;6.980;2023-03-01T11:46:26;15.23;;;8.73;;
50821;SDS011;36794;51.212;6.980;2023-03-01T11:49:03;13.50;;;9.20;;
50821;SDS011;36794;51.212;6.980;2023-03-01T11:56:50;14.15;;;9.00;;
50821;SDS011;36794;51.212;6.980;2023-03-01T12:01:51;15.03;;;8.80;;
50821;SDS011;36794;51.212;6.980;2023-03-01T12:05:02;15.13;;;8.87;;
50821;SDS011;36794;51.212;6.980;2023-03-01T12:09:47;13.57;;;8.83;;
50821;SDS011;36794;51.212;6.980;2023-03-01T12:12:28;15.07;;;9.30;;
50821;SDS011;36794;51.212;6.980;2023-03-01T12:20:09;13.90;;;8.60;;
50821;SDS011;36794;51.212;6.980;2023-03-01T12:22:44;13.53;;;8.03;;
50821;SDS011;36794;51.212;6.980;2023-03-01T12:30:29;9.43;;;5.88;;
50821;SDS011;36794;51.212;6.980;2023-03-01T12:33:14;11.97;;;8.13;;
50821;SDS011;36794;51.212;6.980;2023-03-01T12:36:05;12.63;;;8.35;;
50821;SDS011;36794;51.212;6.980;2023-03-01T12:46:58;13.00;;;7.57;;
50821;SDS011;36794;51.212;6.980;2023-03-01T12:49:19;14.57;;;7.80;;
50821;SDS011;36794;51.212;6.980;2023-03-01T12:51:55;13.47;;;7.53;;
50821;SDS011;36794;51.212;6.980;2023-03-01T12:54:29;15.80;;;7.90;;
50821;SDS011;36794;51.212;6.980;2023-03-01T12:56:56;10.80;;;7.07;;
50821;SDS011;36794;51.212;6.980;2023-03-01T12:59:28;13.87;;;7.37;;
50821;SDS011;36794;51.212;6.980;2023-03-01T13:07:41;12.90;;;7.33;;
50821;SDS011;36794;51.212;6.980;2023-03-01T13:15:00;11.30;;;6.75;;
50821;SDS011;36794;51.212;6.980;2023-03-01T13:17:33;15.90;;;7.67;;
50821;SDS011;36794;51.212;6.980;2023-03-01T13:20:11;13.00;;;7.67;;
50821;SDS011;36794;51.212;6.980;2023-03-01T13:22:37;14.33;;;8.00;;
50821;SDS011;36794;51.212;6.980;2023-03-01T13:25:17;13.47;;;7.53;;
50821;SDS011;36794;51.212;6.980;2023-03-01T13:27:44;10.40;;;7.27;;
50821;SDS011;36794;51.212;6.980;2023-03-01T13:33:14;12.45;;;6.07;;
50821;SDS011;36794;51.212;6.980;2023-03-01T13:35:42;10.27;;;7.20;;
50821;SDS011;36794;51.212;6.980;2023-03-01T13:43:23;11.73;;;7.17;;
50821;SDS011;36794;51.212;6.980;2023-03-01T13:45:53;14.50;;;7.95;;
50821;SDS011;36794;51.212;6.980;2023-03-01T13:48:23;15.30;;;7.80;;
50821;SDS011;36794;51.212;6.980;2023-03-01T13:50:53;16.27;;;7.57;;
50821;SDS011;36794;51.212;6.980;2023-03-01T13:53:22;11.90;;;6.93;;
50821;SDS011;36794;51.212;6.980;2023-03-01T13:55:50;17.83;;;8.23;;
50821;SDS011;36794;51.212;6.980;2023-03-01T14:00:44;11.67;;;6.87;;
50821;SDS011;36794;51.212;6.980;2023-03-01T14:03:15;11.33;;;7.80;;
50821;SDS011;36794;51.212;6.980;2023-03-01T14:05:42;11.30;;;7.30;;
50821;SDS011;36794;51.212;6.980;2023-03-01T14:08:21;14.60;;;7.23;;
50821;SDS011;36794;51.212;6.980;2023-03-01T14:15:53;14.10;;;7.47;;
50821;SDS011;36794;51.212;6.980;2023-03-01T14:18:29;13.83;;;7.40;;
50821;SDS011;36794;51.212;6.980;2023-03-01T14:20:58;14.57;;;7.77;;
50821;SDS011;36794;51.212;6.980;2023-03-01T14:23:24;12.23;;;7.33;;
50821;SDS011;36794;51.212;6.980;2023-03-01T14:25:53;10.47;;;7.27;;
50821;SDS011;36794;51.212;6.980;2023-03-01T14:28:21;15.23;;;7.27;;
50821;SDS011;36794;51.212;6.980;2023-03-01T14:30:50;12.37;;;7.03;;
50821;SDS011;36794;51.212;6.980;2023-03-01T14:33:20;13.37;;;6.90;;
50821;SDS011;36794;51.212;6.980;2023-03-01T14:35:54;11.87;;;7.33;;
50821;SDS011;36794;51.212;6.980;2023-03-01T14:38:21;13.23;;;6.90;;
50821;SDS011;36794;51.212;6.980;2023-03-01T14:40:47;10.27;;;6.37;;
50821;SDS011;36794;51.212;6.980;2023-03-01T14:43:16;12.50;;;6.80;;
50821;SDS011;36794;51.212;6.980;2023-03-01T14:45:48;11.00;;;6.80;;
50821;SDS011;36794;51.212;6.980;2023-03-01T14:48:15;9.83;;;6.83;;
50821;SDS011;36794;51.212;6.980;2023-03-01T14:50:41;12.47;;;7.40;;
50821;SDS011;36794;51.212;6.980;2023-03-01T14:53:11;14.57;;;6.77;;
50821;SDS011;36794;51.212;6.980;2023-03-01T14:55:41;10.10;;;6.57;;
50821;SDS011;36794;51.212;6.980;2023-03-01T14:58:15;12.30;;;6.50;;
50821;SDS011;36794;51.212;6.980;2023-03-01T15:00:57;9.67;;;6.60;;
50821;SDS011;36794;51.212;6.980;2023-03-01T15:03:25;7.93;;;5.90;;
50821;SDS011;36794;51.212;6.980;2023-03-01T15:05:52;14.70;;;7.27;;
50821;SDS011;36794;51.212;6.980;2023-03-01T15:08:23;9.63;;;6.03;;
50821;SDS011;36794;51.212;6.980;2023-03-01T15:10:58;10.67;;;5.90;;
50821;SDS011;36794;51.212;6.980;2023-03-01T15:13:25;12.10;;;6.95;;
50821;SDS011;36794;51.212;6.980;2023-03-01T15:15:51;10.67;;;6.63;;
50821;SDS011;36794;51.212;6.980;2023-03-01T15:18:22;10.73;;;6.97;;
50821;SDS011;36794;51.212;6.980;2023-03-01T15:20:51;12.70;;;6.73;;
50821;SDS011;36794;51.212;6.980;2023-03-01T15:23:19;11.43;;;6.73;;
50821;SDS011;36794;51.212;6.980;2023-03-01T15:25:46;11.47;;;6.43;;
50821;SDS011;36794;51.212;6.980;2023-03-01T15:28:21;9.55;;;6.45;;
50821;SDS011;36794;51.212;6.980;2023-03-01T15:30:51;10.03;;;5.70;;
50821;SDS011;36794;51.212;6.980;2023-03-01T15:35:52;17.00;;;6.05;;
50821;SDS011;36794;51.212;6.980;2023-03-01T15:40:54;9.10;;;5.27;;
50821;SDS011;36794;51.212;6.980;2023-03-01T15:48:54;10.77;;;5.90;;
50821;SDS011;36794;51.212;6.980;2023-03-01T15:53:57;7.33;;;4.87;;
50821;SDS011;36794;51.212;6.980;2023-03-01T15:56:24;12.07;;;5.97;;
50821;SDS011;36794;51.212;6.980;2023-03-01T15:58:50;11.63;;;5.73;;
50821;SDS011;36794;51.212;6.980;2023-03-01T16:01:16;13.23;;;5.93;;
50821;SDS011;36794;51.212;6.980;2023-03-01T16:03:43;9.43;;;5.43;;
50821;SDS011;36794;51.212;6.980;2023-03-01T16:06:09;9.50;;;5.60;;
50821;SDS011;36794;51.212;6.980;2023-03-01T16:08:36;8.93;;;5.53;;
50821;SDS011;36794;51.212;6.980;2023-03-01T16:11:02;12.83;;;5.97;;
50821;SDS011;36794;51.212;6.980;2023-03-01T16:13:30;9.67;;;5.00;;
50821;SDS011;36794;51.212;6.980;2023-03-01T16:15:56;9.93;;;5.50;;
50821;SDS011;36794;51.212;6.980;2023-03-01T16:18:22;9.87;;;5.87;;
50821;SDS011;36794;51.212;6.980;2023-03-01T16:20:48;8.57;;;5.47;;
50821;SDS011;36794;51.212;6.980;2023-03-01T16:23:14;13.50;;;5.53;;